Time;durP1;ratioP1;P1;durP2;ratioP2;P2;SDS_P1;SDS_P2;PMS_P1;PMS_P2;Temp;Humidity;BMP_temperature;BMP_pressure;BME280_temperature;BME280_humidity;BME280_pressure;Samples;Min_cycle;Max_cycle;Signal;HPM_P1;HPM_P2
2023/10/20 00:00:44;;;;;;;13.75;9.13;;;15.30;99.90;;;;;;5051889;28;20045;-74
2023/10/20 00:03:10;;;;;;;15.25;11.07;;;15.30;99.90;;;;;;5051978;28;20012;-74
2023/10/20 00:05:36;;;;;;;20.95;11.57;;;15.30;99.90;;;;;;5050396;28;20493;-73
2023/10/20 00:08:02;;;;;;;18.33;11.23;;;15.30;99.90;;;;;;5051659;28;20117;-74
2023/10/20 00:10:31;;;;;;;14.07;9.38;;;15.30;99.90;;;;;;5051671;28;20032;-74
2023/10/20 00:12:59;;;;;;;20.13;13.13;;;15.30;99.90;;;;;;5051328;28;20032;-73
2023/10/20 00:15:25;;;;;;;16.55;11.75;;;15.30;99.90;;;;;;5051526;28;20020;-73
2023/10/20 00:17:50;;;;;;;16.45;11.43;;;15.30;99.90;;;;;;5050074;28;20501;-74
2023/10/20 00:20:16;;;;;;;12.70;9.50;;;15.30;99.90;;;;;;5051685;28;20107;-74
2023/10/20 00:22:42;;;;;;;18.98;11.32;;;15.30;99.90;;;;;;5050827;28;20567;-74
2023/10/20 00:25:10;;;;;;;16.33;11.38;;;15.30;99.90;;;;;;5051652;28;20029;-74
2023/10/20 00:27:37;;;;;;;18.48;11.90;;;15.30;99.90;;;;;;5049399;28;20025;-74
2023/10/20 00:30:03;;;;;;;18.90;12.88;;;15.30;99.90;;;;;;5050831;28;20517;-73
2023/10/20 00:32:30;;;;;;;17.80;13.60;;;15.30;99.90;;;;;;5050619;28;20079;-73
2023/10/20 00:34:57;;;;;;;21.33;13.80;;;15.30;99.90;;;;;;5051432;28;20487;-73
2023/10/20 00:37:23;;;;;;;19.73;14.70;;;15.30;99.90;;;;;;5050337;28;20021;-74
2023/10/20 00:39:49;;;;;;;16.85;13.55;;;15.30;99.90;;;;;;5050570;28;20032;-74
2023/10/20 00:42:15;;;;;;;20.70;13.48;;;15.30;99.90;;;;;;5048627;28;20514;-73
2023/10/20 00:44:40;;;;;;;24.00;16.33;;;15.30;99.90;;;;;;5051556;28;20029;-73
2023/10/20 00:47:07;;;;;;;24.98;17.88;;;15.30;99.90;;;;;;5050605;28;20066;-74
2023/10/20 00:49:32;;;;;;;18.00;14.95;;;15.30;99.90;;;;;;5051122;28;20040;-74
2023/10/20 00:51:59;;;;;;;20.42;16.15;;;15.20;99.90;;;;;;5048790;28;20021;-74
2023/10/20 00:54:25;;;;;;;18.52;15.00;;;15.30;99.90;;;;;;5039451;28;20020;-74
2023/10/20 00:56:52;;;;;;;19.10;15.88;;;15.30;99.90;;;;;;5050485;28;20107;-74
2023/10/20 00:59:18;;;;;;;20.05;15.93;;;15.30;99.90;;;;;;5050773;28;20478;-74
2023/10/20 01:01:44;;;;;;;23.08;18.83;;;15.30;99.90;;;;;;5050383;28;20099;-74
2023/10/20 01:04:10;;;;;;;24.48;18.63;;;15.30;99.90;;;;;;5050846;28;20048;-74
2023/10/20 01:06:36;;;;;;;19.60;14.50;;;15.20;99.90;;;;;;5050740;28;20025;-73
2023/10/20 01:09:03;;;;;;;24.25;17.65;;;15.30;99.90;;;;;;5051012;28;20057;-74
2023/10/20 01:11:29;;;;;;;20.60;16.55;;;15.20;99.90;;;;;;5050279;28;20367;-74
2023/10/20 01:13:56;;;;;;;23.38;18.55;;;15.20;99.90;;;;;;5050740;28;20037;-74
2023/10/20 01:16:23;;;;;;;22.35;16.88;;;15.20;99.90;;;;;;5050243;28;20021;-74
2023/10/20 01:18:49;;;;;;;16.80;14.20;;;15.20;99.90;;;;;;5038156;28;20386;-73
2023/10/20 01:21:15;;;;;;;22.80;18.08;;;15.20;99.90;;;;;;5049258;28;20474;-74
2023/10/20 01:23:41;;;;;;;22.25;17.55;;;15.20;99.90;;;;;;5050391;28;20029;-73
2023/10/20 01:26:07;;;;;;;23.45;16.98;;;15.20;99.90;;;;;;5047255;28;20102;-73
2023/10/20 01:28:33;;;;;;;23.23;18.08;;;15.10;99.90;;;;;;5039437;28;20211;-74
2023/10/20 01:30:59;;;;;;;22.75;18.13;;;15.10;99.90;;;;;;5050342;28;20138;-73
2023/10/20 01:33:25;;;;;;;26.77;20.25;;;15.10;99.90;;;;;;5050419;28;20385;-74
2023/10/20 01:35:50;;;;;;;25.02;18.88;;;15.10;99.90;;;;;;5050239;28;20029;-74
2023/10/20 01:38:17;;;;;;;23.60;19.38;;;15.10;99.90;;;;;;5048546;28;20436;-73
2023/10/20 01:40:44;;;;;;;25.38;19.30;;;15.10;99.90;;;;;;5054634;28;20032;-74
2023/10/20 01:43:09;;;;;;;25.65;18.83;;;15.10;99.90;;;;;;5055352;28;20040;-74
2023/10/20 01:45:35;;;;;;;30.17;21.33;;;15.10;99.90;;;;;;5057245;28;20386;-74
2023/10/20 01:48:01;;;;;;;29.45;20.73;;;15.10;99.90;;;;;;5056509;28;20090;-74
2023/10/20 01:50:26;;;;;;;21.00;17.52;;;15.10;99.90;;;;;;5057058;28;20060;-75
2023/10/20 01:52:52;;;;;;;24.08;18.75;;;15.00;99.90;;;;;;5056294;28;20028;-74
2023/10/20 01:55:18;;;;;;;27.40;19.40;;;15.00;99.90;;;;;;5039328;28;20098;-74
2023/10/20 01:57:43;;;;;;;26.98;19.35;;;15.00;99.90;;;;;;5056731;28;20025;-74
2023/10/20 02:00:13;;;;;;;25.48;19.83;;;15.00;99.90;;;;;;5056956;28;20486;-74
2023/10/20 02:02:42;;;;;;;22.05;17.15;;;15.00;99.90;;;;;;5054978;28;20047;-74
2023/10/20 02:05:08;;;;;;;22.20;16.67;;;15.00;99.90;;;;;;5056999;28;20024;-74
2023/10/20 02:07:34;;;;;;;22.02;17.38;;;15.00;99.90;;;;;;5056400;28;20402;-73
2023/10/20 02:10:06;;;;;;;23.90;18.70;;;15.00;99.90;;;;;;5054953;28;20028;-73
2023/10/20 02:12:33;;;;;;;25.35;18.27;;;15.00;99.90;;;;;;5055994;28;20040;-73
2023/10/20 02:14:59;;;;;;;25.15;18.55;;;15.00;99.90;;;;;;5038762;28;20096;-73
2023/10/20 02:17:25;;;;;;;27.02;20.10;;;14.90;99.90;;;;;;5056131;28;20025;-73
2023/10/20 02:19:50;;;;;;;26.33;19.65;;;15.00;99.90;;;;;;5056281;28;20044;-73
2023/10/20 02:22:16;;;;;;;30.10;21.30;;;14.90;99.90;;;;;;5055968;28;20060;-73
2023/10/20 02:24:44;;;;;;;30.55;20.83;;;14.90;99.90;;;;;;5056639;28;20112;-73
2023/10/20 02:27:10;;;;;;;29.65;20.83;;;14.90;99.90;;;;;;5056071;28;20020;-74
2023/10/20 02:29:35;;;;;;;32.75;22.67;;;14.90;99.90;;;;;;5056603;28;20401;-73
2023/10/20 02:32:01;;;;;;;29.25;20.00;;;14.90;99.90;;;;;;5056186;28;20040;-74
2023/10/20 02:34:27;;;;;;;28.13;20.83;;;14.90;99.90;;;;;;5056740;28;20079;-73
2023/10/20 02:36:52;;;;;;;27.67;21.35;;;14.90;99.90;;;;;;5056305;28;20029;-73
2023/10/20 02:39:18;;;;;;;30.08;22.10;;;14.80;99.90;;;;;;5056608;28;20551;-73
2023/10/20 02:41:44;;;;;;;27.35;19.70;;;14.80;99.90;;;;;;5056014;28;20033;-73
2023/10/20 02:44:09;;;;;;;34.90;23.85;;;14.80;99.90;;;;;;5056748;28;20370;-73
2023/10/20 02:46:35;;;;;;;31.13;20.90;;;14.80;99.90;;;;;;5056076;28;20071;-73
2023/10/20 02:49:00;;;;;;;31.92;23.35;;;14.80;99.90;;;;;;5056599;28;20028;-73
2023/10/20 02:51:26;;;;;;;34.42;22.85;;;14.80;99.90;;;;;;5054269;28;20039;-73
2023/10/20 02:53:52;;;;;;;34.00;22.77;;;14.80;99.90;;;;;;5053598;28;20086;-73
2023/10/20 02:56:20;;;;;;;36.83;22.33;;;14.70;99.90;;;;;;5052867;28;20064;-73
2023/10/20 02:58:48;;;;;;;36.40;23.58;;;14.70;99.90;;;;;;5053055;28;20017;-73
2023/10/20 03:01:15;;;;;;;36.38;22.85;;;14.70;99.90;;;;;;5053066;28;20029;-73
2023/10/20 03:03:41;;;;;;;35.75;23.33;;;14.70;99.90;;;;;;5052874;28;20448;-73
2023/10/20 03:06:07;;;;;;;35.60;23.15;;;14.70;99.90;;;;;;5053203;28;20017;-73
2023/10/20 03:08:34;;;;;;;39.63;24.73;;;14.70;99.90;;;;;;5087204;22;20083;-72
2023/10/20 03:11:00;;;;;;;44.45;26.70;;;14.60;99.90;;;;;;5071263;28;20028;-73
2023/10/20 03:13:26;;;;;;;41.60;24.55;;;14.60;99.90;;;;;;5072632;28;20104;-74
2023/10/20 03:15:53;;;;;;;41.92;24.17;;;14.60;99.90;;;;;;5072968;28;20099;-73
2023/10/20 03:18:19;;;;;;;41.95;25.63;;;14.60;99.90;;;;;;5072610;28;20145;-73
2023/10/20 03:20:47;;;;;;;44.22;25.25;;;14.60;99.90;;;;;;5072744;28;20009;-73
2023/10/20 03:23:13;;;;;;;39.30;22.65;;;14.50;99.90;;;;;;5072180;28;20066;-73
2023/10/20 03:25:40;;;;;;;48.30;26.67;;;14.50;99.90;;;;;;5072849;28;20107;-73
2023/10/20 03:28:06;;;;;;;42.60;24.77;;;14.40;99.90;;;;;;5070543;28;20056;-73
2023/10/20 03:30:39;;;;;;;44.58;24.98;;;14.40;99.90;;;;;;5062277;28;20029;-73
2023/10/20 03:33:12;;;;;;;43.65;26.05;;;14.40;99.90;;;;;;5057394;28;20398;-73
2023/10/20 03:35:39;;;;;;;44.95;25.10;;;14.40;99.90;;;;;;5059036;28;20079;-73
2023/10/20 03:38:09;;;;;;;42.55;23.25;;;14.40;99.90;;;;;;5063160;28;20047;-73
2023/10/20 03:40:40;;;;;;;39.53;23.83;;;14.30;99.90;;;;;;5042513;28;20032;-73
2023/10/20 03:43:06;;;;;;;;;;;14.30;99.90;;;;;;5058794;28;20017;-73
2023/10/20 03:45:40;;;;;;;43.83;24.23;;;14.30;99.90;;;;;;5052326;28;20002;-73
2023/10/20 03:48:09;;;;;;;52.92;27.98;;;14.30;99.90;;;;;;5050305;28;20067;-73
2023/10/20 03:50:42;;;;;;;43.95;23.17;;;14.30;99.90;;;;;;5054383;28;20047;-73
2023/10/20 03:53:10;;;;;;;44.13;22.92;;;14.30;99.90;;;;;;5056473;28;20114;-73
2023/10/20 03:55:36;;;;;;;44.15;26.48;;;14.30;99.90;;;;;;5058956;28;20036;-73
2023/10/20 03:58:02;;;;;;;43.05;24.65;;;14.20;99.90;;;;;;5059598;28;20025;-73
2023/10/20 04:00:28;;;;;;;48.88;24.92;;;14.20;99.90;;;;;;5056052;28;20035;-73
2023/10/20 04:02:55;;;;;;;41.33;22.75;;;14.20;99.90;;;;;;5050573;28;20413;-73
2023/10/20 04:05:21;;;;;;;44.33;24.63;;;14.20;99.90;;;;;;5051737;28;20045;-73
2023/10/20 04:07:47;;;;;;;41.35;23.25;;;14.20;99.90;;;;;;5051572;28;20056;-74
2023/10/20 04:10:12;;;;;;;39.33;22.98;;;14.10;99.90;;;;;;5052099;28;20406;-73
2023/10/20 04:12:39;;;;;;;44.65;25.33;;;14.10;99.90;;;;;;5051162;28;20032;-73
2023/10/20 04:15:08;;;;;;;46.85;25.90;;;14.10;99.90;;;;;;5052287;28;20039;-73
2023/10/20 04:17:38;;;;;;;43.85;23.98;;;14.10;99.90;;;;;;5050982;28;20036;-73
2023/10/20 04:20:06;;;;;;;40.92;23.05;;;14.10;99.90;;;;;;5051739;28;20033;-72
2023/10/20 04:22:32;;;;;;;39.92;23.55;;;14.00;99.90;;;;;;5050763;28;20501;-73
2023/10/20 04:24:58;;;;;;;38.10;21.45;;;14.10;99.90;;;;;;5051676;28;20021;-73
2023/10/20 04:55:26;;;;;;;41.22;21.60;;;13.80;99.90;;;;;;5009959;28;20037;-73
2023/10/20 05:07:58;;;;;;;37.10;20.60;;;13.80;99.90;;;;;;5036919;28;20094;-73
2023/10/20 05:10:24;;;;;;;38.00;20.35;;;13.80;99.90;;;;;;5050756;28;20036;-73
2023/10/20 05:12:51;;;;;;;38.25;20.88;;;13.70;99.90;;;;;;5049512;28;20029;-72
2023/10/20 05:15:17;;;;;;;32.10;18.98;;;13.70;99.90;;;;;;5049535;28;20052;-73
2023/10/20 05:17:43;;;;;;;32.92;18.67;;;13.70;99.90;;;;;;5048790;28;20025;-73
2023/10/20 05:20:30;;;;;;;31.05;18.02;;;13.70;99.90;;;;;;5050729;28;20127;-73
2023/10/20 05:22:56;;;;;;;30.05;17.40;;;13.70;99.90;;;;;;5049794;28;20025;-73
2023/10/20 05:25:21;;;;;;;29.67;18.13;;;13.70;99.90;;;;;;5050888;28;20079;-73
2023/10/20 05:27:47;;;;;;;26.85;16.52;;;13.70;99.90;;;;;;5048631;28;20580;-73
2023/10/20 05:30:13;;;;;;;28.98;16.98;;;13.60;99.90;;;;;;5050539;28;20021;-73
2023/10/20 05:32:39;;;;;;;27.88;16.90;;;13.60;99.90;;;;;;5050759;28;20490;-73
2023/10/20 05:35:08;;;;;;;26.25;15.40;;;13.70;99.90;;;;;;5056601;28;20025;-73
2023/10/20 05:37:34;;;;;;;26.85;16.13;;;13.60;99.90;;;;;;5048422;28;20079;-73
2023/10/20 05:40:00;;;;;;;20.42;13.32;;;13.60;99.90;;;;;;5057789;28;20056;-73
2023/10/20 05:42:26;;;;;;;24.25;14.55;;;13.60;99.90;;;;;;5051972;28;20025;-73
2023/10/20 05:45:10;;;;;;;28.30;15.00;;;13.60;99.90;;;;;;5053218;28;20459;-72
2023/10/20 05:47:37;;;;;;;21.48;12.80;;;13.60;99.90;;;;;;5048805;28;20037;-73
2023/10/20 05:50:05;;;;;;;21.20;13.70;;;13.50;99.90;;;;;;5048585;28;20371;-73
2023/10/20 05:52:31;;;;;;;20.15;12.75;;;13.60;99.90;;;;;;5036906;28;20009;-73
2023/10/20 05:54:57;;;;;;;19.67;11.80;;;13.50;99.90;;;;;;5051708;28;20524;-73
2023/10/20 05:57:23;;;;;;;17.98;11.55;;;13.50;99.90;;;;;;5055560;28;20047;-73
2023/10/20 05:59:49;;;;;;;17.80;10.85;;;13.50;99.90;;;;;;5044432;28;20118;-73
2023/10/20 06:02:16;;;;;;;14.43;9.50;;;13.50;99.90;;;;;;5049508;28;20540;-73
2023/10/20 06:04:41;;;;;;;14.98;9.60;;;13.50;99.90;;;;;;5048700;28;20398;-73
2023/10/20 06:07:08;;;;;;;11.85;7.93;;;13.50;99.90;;;;;;5049865;28;20021;-73
2023/10/20 06:09:33;;;;;;;17.20;10.88;;;13.40;99.90;;;;;;5054303;28;20574;-73
2023/10/20 06:12:00;;;;;;;12.73;8.93;;;13.40;99.90;;;;;;5055680;28;20112;-73
2023/10/20 06:14:26;;;;;;;16.25;10.82;;;13.40;99.90;;;;;;5051450;28;20104;-73
2023/10/20 06:16:52;;;;;;;15.50;9.43;;;13.40;99.90;;;;;;5053025;28;20049;-73
2023/10/20 06:19:18;;;;;;;15.98;11.07;;;13.40;99.90;;;;;;5050595;28;20029;-73
2023/10/20 06:21:43;;;;;;;15.10;10.30;;;13.40;99.90;;;;;;5050340;28;20470;-72
2023/10/20 06:24:09;;;;;;;16.50;11.15;;;13.40;99.90;;;;;;5057931;28;20078;-73
2023/10/20 06:26:35;;;;;;;17.58;11.15;;;13.40;99.90;;;;;;5050725;28;20039;-72
2023/10/20 06:29:01;;;;;;;20.30;11.77;;;13.40;99.90;;;;;;5057403;28;20665;-73
2023/10/20 06:36:43;;;;;;;25.88;14.18;;;13.30;99.90;;;;;;5058453;28;20047;-72
2023/10/20 06:39:13;;;;;;;24.48;14.93;;;13.30;99.90;;;;;;5062575;28;20044;-72
2023/10/20 06:41:39;;;;;;;27.92;16.42;;;13.30;99.90;;;;;;5052689;28;20543;-73
2023/10/20 06:44:05;;;;;;;25.60;14.65;;;13.30;99.90;;;;;;5057414;28;20029;-72
2023/10/20 06:46:30;;;;;;;28.75;15.70;;;13.20;99.90;;;;;;5069034;22;20478;-72
2023/10/20 06:48:56;;;;;;;28.73;15.82;;;13.30;99.90;;;;;;5064111;28;20033;-72
2023/10/20 06:51:23;;;;;;;27.80;15.82;;;13.20;99.90;;;;;;5065755;28;20017;-72
2023/10/20 06:53:49;;;;;;;27.42;16.05;;;13.20;99.90;;;;;;5057749;28;20043;-72
2023/10/20 06:56:15;;;;;;;29.85;16.17;;;13.20;99.90;;;;;;5058588;28;20637;-73
2023/10/20 06:58:41;;;;;;;26.90;14.07;;;13.20;99.90;;;;;;5056213;28;20115;-73
2023/10/20 07:01:07;;;;;;;24.40;12.95;;;13.20;99.90;;;;;;5071214;28;20366;-73
2023/10/20 07:03:33;;;;;;;24.27;14.35;;;13.10;99.90;;;;;;5070758;28;20016;-72
2023/10/20 07:06:06;;;;;;;24.83;14.00;;;13.10;99.90;;;;;;5068919;28;20020;-71
2023/10/20 07:08:33;;;;;;;26.73;14.48;;;13.10;99.90;;;;;;5067115;28;20024;-72
2023/10/20 07:11:02;;;;;;;27.15;14.57;;;13.10;99.90;;;;;;5064250;28;20536;-72
2023/10/20 07:13:28;;;;;;;25.33;13.90;;;13.00;99.90;;;;;;5072258;28;20024;-73
2023/10/20 07:15:56;;;;;;;24.17;13.23;;;13.00;99.90;;;;;;5065575;28;20039;-73
2023/10/20 07:18:22;;;;;;;22.73;12.27;;;13.00;99.90;;;;;;5069170;28;20123;-72
2023/10/20 07:20:48;;;;;;;21.40;12.48;;;13.00;99.90;;;;;;5071181;28;20023;-73
2023/10/20 07:23:16;;;;;;;23.25;12.07;;;13.00;99.90;;;;;;5071793;28;20025;-72
2023/10/20 07:25:42;;;;;;;19.27;11.80;;;13.00;99.90;;;;;;5071526;28;20139;-72
2023/10/20 07:28:08;;;;;;;20.73;12.15;;;12.90;99.90;;;;;;5071188;28;20038;-73
2023/10/20 07:30:35;;;;;;;20.35;10.82;;;12.90;99.90;;;;;;5072339;28;20639;-73
2023/10/20 07:33:03;;;;;;;18.67;10.30;;;12.90;99.90;;;;;;5069702;28;20520;-73
2023/10/20 07:35:29;;;;;;;22.17;11.20;;;12.90;99.90;;;;;;5072684;28;20526;-73
2023/10/20 07:37:54;;;;;;;16.27;9.32;;;12.80;99.90;;;;;;5071476;28;20036;-73
2023/10/20 07:40:20;;;;;;;16.52;9.35;;;12.80;99.90;;;;;;5071228;28;20150;-73
2023/10/20 07:42:46;;;;;;;19.23;10.43;;;12.80;99.90;;;;;;5070688;28;20417;-73
2023/10/20 07:45:12;;;;;;;17.15;9.75;;;12.80;99.90;;;;;;5070578;28;20029;-73
2023/10/20 07:47:38;;;;;;;16.80;9.50;;;12.80;99.90;;;;;;5069560;28;20324;-73
2023/10/20 07:50:06;;;;;;;20.00;10.35;;;12.70;99.90;;;;;;5070527;28;20024;-73
2023/10/20 07:52:31;;;;;;;15.73;8.82;;;12.70;99.90;;;;;;5069993;28;20458;-73
2023/10/20 07:54:57;;;;;;;17.10;9.48;;;12.70;99.90;;;;;;5070101;28;20125;-75
2023/10/20 07:57:24;;;;;;;15.50;8.40;;;12.70;99.90;;;;;;5070042;28;20070;-73
2023/10/20 07:59:50;;;;;;;15.10;8.20;;;12.60;99.90;;;;;;5072001;28;20074;-73
2023/10/20 08:02:17;;;;;;;17.58;9.43;;;12.60;99.90;;;;;;5075119;28;20039;-74
2023/10/20 08:04:42;;;;;;;15.55;8.10;;;12.60;99.90;;;;;;5068139;28;20064;-74
2023/10/20 08:07:11;;;;;;;12.68;8.07;;;12.60;99.90;;;;;;5063317;28;20489;-73
2023/10/20 08:09:37;;;;;;;13.15;7.57;;;12.60;99.90;;;;;;5064613;28;20054;-73
2023/10/20 08:12:04;;;;;;;13.27;7.90;;;12.60;99.90;;;;;;5050129;28;20036;-73
2023/10/20 08:14:30;;;;;;;11.85;7.07;;;12.50;99.90;;;;;;5050222;28;20043;-74
2023/10/20 08:16:56;;;;;;;9.73;5.72;;;12.50;99.90;;;;;;5066849;28;20028;-73
2023/10/20 08:19:21;;;;;;;11.57;6.82;;;12.50;99.90;;;;;;5049673;28;20028;-74
2023/10/20 08:21:47;;;;;;;10.18;6.28;;;12.50;99.90;;;;;;5067248;28;20516;-73
2023/10/20 08:24:14;;;;;;;10.23;6.20;;;12.50;99.90;;;;;;5063468;28;20472;-73
2023/10/20 08:26:39;;;;;;;12.10;6.50;;;12.40;99.90;;;;;;5052595;28;20089;-76
2023/10/20 08:29:12;;;;;;;7.55;4.82;;;12.40;99.90;;;;;;5065244;28;20519;-74
2023/10/20 08:31:39;;;;;;;8.05;4.85;;;12.40;99.90;;;;;;5049130;28;20236;-73
2023/10/20 08:34:05;;;;;;;8.20;4.80;;;12.40;99.90;;;;;;5049548;28;20020;-73
2023/10/20 08:36:30;;;;;;;8.25;4.70;;;12.40;99.90;;;;;;5051156;28;20054;-73
2023/10/20 08:39:01;;;;;;;7.68;4.68;;;12.30;99.90;;;;;;5050610;28;20028;-73
2023/10/20 08:41:27;;;;;;;8.90;4.35;;;12.30;99.90;;;;;;5050798;28;20040;-73
2023/10/20 08:43:55;;;;;;;6.82;4.32;;;12.30;99.90;;;;;;5049686;28;20424;-73
2023/10/20 08:46:23;;;;;;;6.35;3.72;;;12.30;99.90;;;;;;5050038;28;20516;-73
2023/10/20 08:48:49;;;;;;;4.32;3.00;;;12.30;99.90;;;;;;5049569;28;20155;-74
2023/10/20 08:51:18;;;;;;;6.05;4.13;;;12.30;99.90;;;;;;5050374;28;20029;-74
2023/10/20 08:53:45;;;;;;;6.78;4.13;;;12.20;99.90;;;;;;5062828;28;20346;-73
2023/10/20 08:56:12;;;;;;;6.38;4.00;;;12.20;99.90;;;;;;5058341;28;20025;-74
2023/10/20 08:58:38;;;;;;;6.07;3.92;;;12.20;99.90;;;;;;5063849;28;20078;-73
2023/10/20 09:01:05;;;;;;;4.93;3.33;;;12.20;99.90;;;;;;5066922;28;20029;-74
2023/10/20 09:03:39;;;;;;;5.68;3.30;;;12.20;99.90;;;;;;5061840;28;20516;-74
2023/10/20 09:06:06;;;;;;;6.60;3.53;;;12.10;99.90;;;;;;5070495;28;20111;-74
2023/10/20 09:08:33;;;;;;;5.22;3.47;;;12.10;99.90;;;;;;5067935;28;20050;-76
2023/10/20 09:10:58;;;;;;;6.85;3.85;;;12.10;99.90;;;;;;5063336;28;20020;-76
2023/10/20 09:13:34;;;;;;;6.15;3.00;;;12.10;99.90;;;;;;5065648;28;20032;-75
2023/10/20 09:16:01;;;;;;;4.47;2.78;;;12.10;99.90;;;;;;5061528;28;20017;-76
2023/10/20 09:18:26;;;;;;;5.50;3.45;;;12.10;99.90;;;;;;5068189;28;20024;-75
2023/10/20 09:21:00;;;;;;;4.65;2.97;;;12.10;99.90;;;;;;5067803;28;20477;-75
2023/10/20 09:23:26;;;;;;;5.15;3.10;;;12.10;99.90;;;;;;5070015;28;20048;-75
2023/10/20 09:25:52;;;;;;;3.72;2.70;;;12.00;99.90;;;;;;5068226;28;20439;-76
2023/10/20 09:28:18;;;;;;;5.40;2.78;;;12.00;99.90;;;;;;5056832;28;20051;-76
2023/10/20 09:30:47;;;;;;;13.95;3.40;;;12.00;99.90;;;;;;5069015;28;20052;-76
2023/10/20 09:33:13;;;;;;;4.30;2.72;;;12.00;99.90;;;;;;5053124;28;20103;-76
2023/10/20 09:35:41;;;;;;;3.90;2.40;;;12.00;99.90;;;;;;5069089;28;20025;-76
2023/10/20 09:38:11;;;;;;;4.50;2.50;;;11.90;99.90;;;;;;5069152;28;20056;-76
2023/10/20 09:40:45;;;;;;;5.63;2.53;;;11.90;99.90;;;;;;5070395;28;20482;-75
2023/10/20 09:43:13;;;;;;;3.92;2.42;;;11.90;99.90;;;;;;5068233;28;20377;-76
2023/10/20 09:45:43;;;;;;;2.95;1.75;;;11.90;99.90;;;;;;5065025;28;20053;-76
2023/10/20 09:48:19;;;;;;;4.03;1.93;;;11.80;99.90;;;;;;5059400;28;20393;-76
2023/10/20 09:50:49;;;;;;;3.10;2.10;;;11.80;99.90;;;;;;5049866;28;20033;-75
2023/10/20 09:53:16;;;;;;;3.60;2.03;;;11.80;99.90;;;;;;5050204;28;20029;-76
2023/10/20 09:55:47;;;;;;;4.72;2.00;;;11.80;99.90;;;;;;5068000;28;20033;-76
2023/10/20 09:58:22;;;;;;;3.10;1.90;;;11.80;99.90;;;;;;5068366;28;20050;-75
2023/10/20 10:00:50;;;;;;;2.75;1.80;;;11.70;99.90;;;;;;5069088;28;20017;-75
2023/10/20 10:03:37;;;;;;;3.30;1.83;;;11.70;99.90;;;;;;5073550;28;20017;-76
2023/10/20 10:06:07;;;;;;;2.05;1.50;;;11.70;99.90;;;;;;5066008;28;20028;-76
2023/10/20 10:08:36;;;;;;;2.70;1.70;;;11.70;99.90;;;;;;5071825;28;20036;-75
2023/10/20 10:11:17;;;;;;;2.78;1.70;;;11.70;99.90;;;;;;5067937;28;20267;-76
2023/10/20 10:13:43;;;;;;;2.55;1.75;;;11.70;99.90;;;;;;5070177;28;20490;-76
2023/10/20 10:16:13;;;;;;;2.88;1.58;;;11.70;99.90;;;;;;5068243;28;20024;-75
2023/10/20 10:18:45;;;;;;;2.38;1.20;;;11.60;99.90;;;;;;5059266;28;20379;-75
2023/10/20 10:21:29;;;;;;;1.77;1.25;;;11.60;99.90;;;;;;5067083;28;20044;-75
2023/10/20 10:24:09;;;;;;;2.90;1.45;;;11.60;99.90;;;;;;5072652;28;20024;-76
2023/10/20 10:26:46;;;;;;;3.03;1.38;;;11.60;99.90;;;;;;5065146;28;20106;-75
2023/10/20 10:29:12;;;;;;;3.30;1.63;;;11.60;99.90;;;;;;5058796;28;20070;-76
2023/10/20 10:31:38;;;;;;;2.47;1.60;;;11.60;99.90;;;;;;5071129;28;20422;-75
2023/10/20 10:34:04;;;;;;;1.60;1.17;;;11.60;99.90;;;;;;5065693;28;20044;-75
2023/10/20 10:36:50;;;;;;;2.75;1.73;;;11.60;99.90;;;;;;5087224;28;20095;-74
2023/10/20 10:39:29;;;;;;;2.38;1.63;;;11.60;99.90;;;;;;5055346;28;20072;-76
2023/10/20 10:42:02;;;;;;;1.55;1.42;;;11.60;99.90;;;;;;5073248;28;20063;-76
2023/10/20 10:44:37;;;;;;;2.33;1.65;;;11.60;99.90;;;;;;5065127;28;20557;-76
2023/10/20 10:47:04;;;;;;;2.05;1.55;;;11.60;99.90;;;;;;5073045;28;20058;-77
2023/10/20 10:49:33;;;;;;;1.92;1.40;;;11.60;99.90;;;;;;5065499;28;20500;-76
2023/10/20 10:52:07;;;;;;;1.85;1.65;;;11.60;99.90;;;;;;5086663;28;20462;-76
2023/10/20 10:54:33;;;;;;;3.38;1.67;;;11.60;99.90;;;;;;5059544;28;20024;-77
2023/10/20 10:57:03;;;;;;;2.03;1.60;;;11.60;99.90;;;;;;5070297;28;20036;-77
2023/10/20 10:59:30;;;;;;;3.00;1.80;;;11.60;99.90;;;;;;5069284;28;20021;-74
2023/10/20 11:01:57;;;;;;;2.40;1.42;;;11.60;99.90;;;;;;5058229;28;20021;-75
2023/10/20 11:04:23;;;;;;;2.75;1.60;;;11.60;99.90;;;;;;5071719;28;20016;-75
2023/10/20 11:06:49;;;;;;;2.13;1.65;;;11.60;99.90;;;;;;5070911;28;20029;-75
2023/10/20 11:09:26;;;;;;;2.28;1.35;;;11.60;99.90;;;;;;5063357;28;20058;-75
2023/10/20 11:11:52;;;;;;;2.25;1.50;;;11.60;99.90;;;;;;5063586;28;20021;-74
2023/10/20 11:14:19;;;;;;;2.92;1.80;;;11.60;99.90;;;;;;5058113;28;20086;-74
2023/10/20 11:16:45;;;;;;;2.30;1.70;;;11.60;99.90;;;;;;5068931;28;20046;-75
2023/10/20 11:19:12;;;;;;;3.38;1.52;;;11.60;99.90;;;;;;5058447;28;20021;-76
2023/10/20 11:21:48;;;;;;;3.22;1.70;;;11.60;99.90;;;;;;5065548;28;20028;-76
2023/10/20 11:24:50;;;;;;;2.78;1.88;;;11.60;99.90;;;;;;5066244;28;20067;-76
2023/10/20 11:27:15;;;;;;;1.85;1.40;;;11.60;99.90;;;;;;5055540;28;20422;-76
2023/10/20 11:29:42;;;;;;;1.27;1.17;;;11.60;99.90;;;;;;5068621;28;20111;-76
2023/10/20 11:32:13;;;;;;;2.05;1.83;;;11.60;99.90;;;;;;5070532;28;20036;-76
2023/10/20 11:34:39;;;;;;;2.40;1.50;;;11.60;99.90;;;;;;5069788;28;20028;-76
2023/10/20 11:37:05;;;;;;;2.60;1.88;;;11.60;99.90;;;;;;5068072;28;20436;-75
2023/10/20 11:39:36;;;;;;;3.03;1.60;;;11.60;99.90;;;;;;5068000;28;20028;-76
2023/10/20 11:42:03;;;;;;;2.72;1.70;;;11.60;99.90;;;;;;5061409;28;20477;-76
2023/10/20 11:44:29;;;;;;;1.70;1.58;;;11.60;99.90;;;;;;5062180;28;20044;-76
2023/10/20 11:46:55;;;;;;;1.58;1.38;;;11.60;99.90;;;;;;5065945;28;20441;-76
2023/10/20 11:49:26;;;;;;;2.78;1.80;;;11.60;99.90;;;;;;5061354;28;20037;-75
2023/10/20 11:51:52;;;;;;;1.95;1.58;;;11.60;99.90;;;;;;5064171;28;20027;-76
2023/10/20 11:54:18;;;;;;;1.60;1.40;;;11.60;99.90;;;;;;5066437;28;20029;-74
2023/10/20 11:56:44;;;;;;;2.17;1.58;;;11.60;99.90;;;;;;5057641;28;20533;-74
2023/10/20 11:59:11;;;;;;;2.08;1.52;;;11.70;99.90;;;;;;5063243;28;20033;-76
2023/10/20 12:01:37;;;;;;;3.17;1.45;;;11.60;99.90;;;;;;5065116;28;20022;-75
2023/10/20 12:04:06;;;;;;;1.95;1.20;;;11.70;99.90;;;;;;5064619;28;20469;-76
2023/10/20 12:06:34;;;;;;;1.80;1.33;;;11.70;99.90;;;;;;5059433;28;20108;-75
2023/10/20 12:09:00;;;;;;;1.98;1.30;;;11.70;99.90;;;;;;5070950;28;20017;-75
2023/10/20 12:11:25;;;;;;;3.35;1.55;;;11.70;99.90;;;;;;5061886;28;20021;-75
2023/10/20 12:13:51;;;;;;;1.45;1.20;;;11.70;99.90;;;;;;5067545;28;20021;-74
2023/10/20 12:16:19;;;;;;;1.38;1.17;;;11.70;99.90;;;;;;5071437;28;20039;-75
2023/10/20 12:18:48;;;;;;;1.80;1.45;;;11.70;99.90;;;;;;5070400;28;20052;-75
2023/10/20 12:21:14;;;;;;;1.85;1.20;;;11.70;99.90;;;;;;5071450;28;20016;-75
2023/10/20 12:23:40;;;;;;;2.00;1.40;;;11.70;99.90;;;;;;5070167;28;20024;-75
2023/10/20 12:26:05;;;;;;;1.95;1.38;;;11.70;99.90;;;;;;5070784;28;20530;-74
2023/10/20 12:28:31;;;;;;;1.38;1.20;;;11.70;99.90;;;;;;5068967;28;20371;-74
2023/10/20 12:30:59;;;;;;;1.42;1.30;;;11.70;99.90;;;;;;5069573;28;20093;-75
2023/10/20 12:33:25;;;;;;;2.38;1.30;;;11.70;99.90;;;;;;5058199;28;20023;-75
2023/10/20 12:35:54;;;;;;;1.75;1.45;;;11.70;99.90;;;;;;5069536;28;20054;-75
2023/10/20 12:38:21;;;;;;;2.08;1.42;;;11.70;99.90;;;;;;5057798;28;20025;-75
2023/10/20 12:40:48;;;;;;;1.67;1.42;;;11.70;99.90;;;;;;5068319;28;20024;-75
2023/10/20 12:43:14;;;;;;;3.00;1.50;;;11.60;99.90;;;;;;5067622;28;20140;-74
2023/10/20 12:45:40;;;;;;;2.17;1.60;;;11.70;99.90;;;;;;5070944;28;20047;-74
2023/10/20 12:48:06;;;;;;;1.55;1.30;;;11.70;99.90;;;;;;5055958;28;20036;-75
2023/10/20 12:50:32;;;;;;;2.42;1.30;;;11.70;99.90;;;;;;5070637;28;20500;-75
2023/10/20 12:53:02;;;;;;;1.77;1.45;;;11.70;99.90;;;;;;5069875;28;20497;-76
2023/10/20 12:55:30;;;;;;;1.98;1.40;;;11.70;99.90;;;;;;5070127;28;20066;-75
2023/10/20 12:57:56;;;;;;;2.00;1.30;;;11.70;99.90;;;;;;5070662;28;20418;-74
2023/10/20 13:00:23;;;;;;;1.38;1.25;;;11.70;99.90;;;;;;5065710;28;20047;-74
2023/10/20 13:02:50;;;;;;;2.22;1.38;;;11.70;99.90;;;;;;5054958;28;20515;-74
2023/10/20 13:05:16;;;;;;;0.93;0.85;;;11.70;99.90;;;;;;5068952;28;20034;-77
2023/10/20 13:07:42;;;;;;;1.27;1.17;;;11.70;99.90;;;;;;5068934;28;20013;-76
2023/10/20 13:10:09;;;;;;;1.70;1.33;;;11.70;99.90;;;;;;5075402;28;20106;-76
2023/10/20 13:12:36;;;;;;;1.55;1.10;;;11.70;99.90;;;;;;5068941;28;20040;-77
2023/10/20 13:15:02;;;;;;;2.85;1.08;;;11.70;99.90;;;;;;5066350;28;20059;-77
2023/10/20 13:17:30;;;;;;;1.83;1.15;;;11.60;99.90;;;;;;5069118;28;20107;-77
2023/10/20 13:19:56;;;;;;;1.73;1.20;;;11.60;99.90;;;;;;5067348;28;20016;-77